<?xml version="1.0" encoding="UTF-8" standalone="no" ?>
<gpx xmlns="http://www.topografix.com/GPX/1/1" xmlns:xsi="http://www.w3.org/2001/XMLSchema-instance" xsi:schemaLocation="http://www.topografix.com/GPX/1/1 http://www.topografix.com/GPX/1/1/gpx.xsd" version="1.1" creator="VisuGPX - https://www.visugpx.com">
  <metadata>
    <name>VTT Sud Bourgogne</name>
    <desc><![CDATA[Cluny - Tournus : circuits VTT XC]]></desc>
  </metadata>
  <trk>
    <name><![CDATA[10 - Bord de Saone - Bleu]]></name>
    <extensions>
      <line xmlns="http://www.topografix.com/GPX/gpx_style/0/2">
        <color>8aa1ff</color>
        <width>4</width>
      </line>
    </extensions>
    <trkseg>
      <trkpt lat="46.44767" lon="4.88669">
        <ele>167</ele>
        <time>2020-09-22T10:10:19Z</time>
      </trkpt>
      <trkpt lat="46.44652" lon="4.88607">
        <ele>172</ele>
        <time>2020-09-22T10:10:48Z</time>
      </trkpt>
      <trkpt lat="46.44647" lon="4.88597">
        <ele>172</ele>
        <time>2020-09-22T10:10:50Z</time>
      </trkpt>
      <trkpt lat="46.44648" lon="4.88583">
        <ele>173</ele>
        <time>2020-09-22T10:10:52Z</time>
      </trkpt>
      <trkpt lat="46.44646" lon="4.88571">
        <ele>173</ele>
        <time>2020-09-22T10:10:54Z</time>
      </trkpt>
      <trkpt lat="46.44641" lon="4.88566">
        <ele>173</ele>
        <time>2020-09-22T10:10:55Z</time>
      </trkpt>
      <trkpt lat="46.44629" lon="4.88561">
        <ele>172</ele>
        <time>2020-09-22T10:10:58Z</time>
      </trkpt>
      <trkpt lat="46.44599" lon="4.88562">
        <ele>172</ele>
        <time>2020-09-22T10:11:05Z</time>
      </trkpt>
      <trkpt lat="46.44588" lon="4.88569">
        <ele>172</ele>
        <time>2020-09-22T10:11:08Z</time>
      </trkpt>
      <trkpt lat="46.44579" lon="4.88591">
        <ele>172</ele>
        <time>2020-09-22T10:11:12Z</time>
      </trkpt>
      <trkpt lat="46.44568" lon="4.8865">
        <ele>170</ele>
        <time>2020-09-22T10:11:22Z</time>
      </trkpt>
      <trkpt lat="46.4456" lon="4.88664">
        <ele>170</ele>
        <time>2020-09-22T10:11:25Z</time>
      </trkpt>
      <trkpt lat="46.44551" lon="4.88664">
        <ele>170</ele>
        <time>2020-09-22T10:11:27Z</time>
      </trkpt>
      <trkpt lat="46.44501" lon="4.88622">
        <ele>171</ele>
        <time>2020-09-22T10:11:41Z</time>
      </trkpt>
      <trkpt lat="46.44491" lon="4.8861">
        <ele>171</ele>
        <time>2020-09-22T10:11:44Z</time>
      </trkpt>
      <trkpt lat="46.44458" lon="4.88554">
        <ele>172</ele>
        <time>2020-09-22T10:11:55Z</time>
      </trkpt>
      <trkpt lat="46.44454" lon="4.88542">
        <ele>172</ele>
        <time>2020-09-22T10:11:58Z</time>
      </trkpt>
      <trkpt lat="46.44455" lon="4.88508">
        <ele>172</ele>
        <time>2020-09-22T10:12:03Z</time>
      </trkpt>
      <trkpt lat="46.44423" lon="4.88429">
        <ele>172</ele>
        <time>2020-09-22T10:12:18Z</time>
      </trkpt>
      <trkpt lat="46.44417" lon="4.88423">
        <ele>172</ele>
        <time>2020-09-22T10:12:19Z</time>
      </trkpt>
      <trkpt lat="46.44402" lon="4.88417">
        <ele>172</ele>
        <time>2020-09-22T10:12:23Z</time>
      </trkpt>
      <trkpt lat="46.44384" lon="4.88424">
        <ele>172</ele>
        <time>2020-09-22T10:12:27Z</time>
      </trkpt>
      <trkpt lat="46.4435" lon="4.88444">
        <ele>171</ele>
        <time>2020-09-22T10:12:36Z</time>
      </trkpt>
      <trkpt lat="46.44336" lon="4.88446">
        <ele>171</ele>
        <time>2020-09-22T10:12:39Z</time>
      </trkpt>
      <trkpt lat="46.44352" lon="4.88419">
        <ele>171</ele>
        <time>2020-09-22T10:12:45Z</time>
      </trkpt>
      <trkpt lat="46.44364" lon="4.88412">
        <ele>171</ele>
        <time>2020-09-22T10:12:48Z</time>
      </trkpt>
      <trkpt lat="46.44376" lon="4.8841">
        <ele>172</ele>
        <time>2020-09-22T10:12:51Z</time>
      </trkpt>
      <trkpt lat="46.44385" lon="4.88397">
        <ele>172</ele>
        <time>2020-09-22T10:12:54Z</time>
      </trkpt>
      <trkpt lat="46.44386" lon="4.8838">
        <ele>173</ele>
        <time>2020-09-22T10:12:57Z</time>
      </trkpt>
      <trkpt lat="46.44384" lon="4.88371">
        <ele>173</ele>
        <time>2020-09-22T10:12:58Z</time>
      </trkpt>
      <trkpt lat="46.44377" lon="4.88361">
        <ele>173</ele>
        <time>2020-09-22T10:13:00Z</time>
      </trkpt>
      <trkpt lat="46.44371" lon="4.88337">
        <ele>173</ele>
        <time>2020-09-22T10:13:05Z</time>
      </trkpt>
      <trkpt lat="46.44375" lon="4.8828">
        <ele>174</ele>
        <time>2020-09-22T10:13:14Z</time>
      </trkpt>
      <trkpt lat="46.44422" lon="4.88084">
        <ele>176</ele>
        <time>2020-09-22T10:13:47Z</time>
      </trkpt>
      <trkpt lat="46.44479" lon="4.8791">
        <ele>176</ele>
        <time>2020-09-22T10:14:18Z</time>
      </trkpt>
      <trkpt lat="46.44487" lon="4.87893">
        <ele>176</ele>
        <time>2020-09-22T10:14:21Z</time>
      </trkpt>
      <trkpt lat="46.44528" lon="4.8783">
        <ele>177</ele>
        <time>2020-09-22T10:14:35Z</time>
      </trkpt>
      <trkpt lat="46.44549" lon="4.87778">
        <ele>178</ele>
        <time>2020-09-22T10:14:45Z</time>
      </trkpt>
      <trkpt lat="46.44674" lon="4.87402">
        <ele>186</ele>
        <time>2020-09-22T10:15:52Z</time>
      </trkpt>
      <trkpt lat="46.44688" lon="4.87324">
        <ele>187</ele>
        <time>2020-09-22T10:16:05Z</time>
      </trkpt>
      <trkpt lat="46.44691" lon="4.87268">
        <ele>187</ele>
        <time>2020-09-22T10:16:14Z</time>
      </trkpt>
      <trkpt lat="46.4469" lon="4.87232">
        <ele>188</ele>
        <time>2020-09-22T10:16:20Z</time>
      </trkpt>
      <trkpt lat="46.44676" lon="4.87096">
        <ele>194</ele>
        <time>2020-09-22T10:16:42Z</time>
      </trkpt>
      <trkpt lat="46.44738" lon="4.87107">
        <ele>194</ele>
        <time>2020-09-22T10:16:57Z</time>
      </trkpt>
      <trkpt lat="46.4481" lon="4.87109">
        <ele>194</ele>
        <time>2020-09-22T10:17:14Z</time>
      </trkpt>
      <trkpt lat="46.44946" lon="4.86959">
        <ele>198</ele>
        <time>2020-09-22T10:17:53Z</time>
      </trkpt>
      <trkpt lat="46.44982" lon="4.86926">
        <ele>199</ele>
        <time>2020-09-22T10:18:03Z</time>
      </trkpt>
      <trkpt lat="46.45007" lon="4.86873">
        <ele>200</ele>
        <time>2020-09-22T10:18:14Z</time>
      </trkpt>
      <trkpt lat="46.45019" lon="4.86842">
        <ele>201</ele>
        <time>2020-09-22T10:18:19Z</time>
      </trkpt>
      <trkpt lat="46.45024" lon="4.86815">
        <ele>201</ele>
        <time>2020-09-22T10:18:24Z</time>
      </trkpt>
      <trkpt lat="46.45004" lon="4.86794">
        <ele>200</ele>
        <time>2020-09-22T10:18:30Z</time>
      </trkpt>
      <trkpt lat="46.44981" lon="4.86776">
        <ele>199</ele>
        <time>2020-09-22T10:18:36Z</time>
      </trkpt>
      <trkpt lat="46.44953" lon="4.86756">
        <ele>199</ele>
        <time>2020-09-22T10:18:43Z</time>
      </trkpt>
      <trkpt lat="46.44894" lon="4.8672">
        <ele>198</ele>
        <time>2020-09-22T10:18:58Z</time>
      </trkpt>
      <trkpt lat="46.44881" lon="4.86702">
        <ele>199</ele>
        <time>2020-09-22T10:19:02Z</time>
      </trkpt>
      <trkpt lat="46.44864" lon="4.86684">
        <ele>199</ele>
        <time>2020-09-22T10:19:07Z</time>
      </trkpt>
      <trkpt lat="46.4484" lon="4.86666">
        <ele>200</ele>
        <time>2020-09-22T10:19:14Z</time>
      </trkpt>
      <trkpt lat="46.44836" lon="4.86642">
        <ele>200</ele>
        <time>2020-09-22T10:19:17Z</time>
      </trkpt>
      <trkpt lat="46.44898" lon="4.86562">
        <ele>202</ele>
        <time>2020-09-22T10:19:37Z</time>
      </trkpt>
      <trkpt lat="46.44909" lon="4.86544">
        <ele>202</ele>
        <time>2020-09-22T10:19:41Z</time>
      </trkpt>
      <trkpt lat="46.44947" lon="4.86328">
        <ele>204</ele>
        <time>2020-09-22T10:20:17Z</time>
      </trkpt>
      <trkpt lat="46.44954" lon="4.86274">
        <ele>205</ele>
        <time>2020-09-22T10:20:25Z</time>
      </trkpt>
      <trkpt lat="46.44945" lon="4.86222">
        <ele>206</ele>
        <time>2020-09-22T10:20:34Z</time>
      </trkpt>
      <trkpt lat="46.44941" lon="4.86121">
        <ele>207</ele>
        <time>2020-09-22T10:20:50Z</time>
      </trkpt>
      <trkpt lat="46.44952" lon="4.86118">
        <ele>207</ele>
        <time>2020-09-22T10:20:53Z</time>
      </trkpt>
      <trkpt lat="46.45056" lon="4.86068">
        <ele>207</ele>
        <time>2020-09-22T10:21:19Z</time>
      </trkpt>
      <trkpt lat="46.45081" lon="4.86059">
        <ele>207</ele>
        <time>2020-09-22T10:21:25Z</time>
      </trkpt>
      <trkpt lat="46.4513" lon="4.86053">
        <ele>208</ele>
        <time>2020-09-22T10:21:36Z</time>
      </trkpt>
      <trkpt lat="46.45241" lon="4.86002">
        <ele>208</ele>
        <time>2020-09-22T10:22:03Z</time>
      </trkpt>
      <trkpt lat="46.45274" lon="4.85989">
        <ele>208</ele>
        <time>2020-09-22T10:22:11Z</time>
      </trkpt>
      <trkpt lat="46.45303" lon="4.85981">
        <ele>208</ele>
        <time>2020-09-22T10:22:18Z</time>
      </trkpt>
      <trkpt lat="46.45412" lon="4.85938">
        <ele>210</ele>
        <time>2020-09-22T10:22:44Z</time>
      </trkpt>
      <trkpt lat="46.45506" lon="4.85913">
        <ele>211</ele>
        <time>2020-09-22T10:23:07Z</time>
      </trkpt>
      <trkpt lat="46.45602" lon="4.85901">
        <ele>211</ele>
        <time>2020-09-22T10:23:29Z</time>
      </trkpt>
      <trkpt lat="46.45624" lon="4.85896">
        <ele>211</ele>
        <time>2020-09-22T10:23:35Z</time>
      </trkpt>
      <trkpt lat="46.45642" lon="4.85889">
        <ele>211</ele>
        <time>2020-09-22T10:23:39Z</time>
      </trkpt>
      <trkpt lat="46.45663" lon="4.85893">
        <ele>212</ele>
        <time>2020-09-22T10:23:44Z</time>
      </trkpt>
      <trkpt lat="46.45701" lon="4.8591">
        <ele>211</ele>
        <time>2020-09-22T10:23:53Z</time>
      </trkpt>
      <trkpt lat="46.45716" lon="4.85922">
        <ele>211</ele>
        <time>2020-09-22T10:23:57Z</time>
      </trkpt>
      <trkpt lat="46.45754" lon="4.85964">
        <ele>210</ele>
        <time>2020-09-22T10:24:08Z</time>
      </trkpt>
      <trkpt lat="46.45789" lon="4.85994">
        <ele>210</ele>
        <time>2020-09-22T10:24:18Z</time>
      </trkpt>
      <trkpt lat="46.45801" lon="4.85877">
        <ele>213</ele>
        <time>2020-09-22T10:24:37Z</time>
      </trkpt>
      <trkpt lat="46.45803" lon="4.85834">
        <ele>215</ele>
        <time>2020-09-22T10:24:44Z</time>
      </trkpt>
      <trkpt lat="46.45805" lon="4.85756">
        <ele>218</ele>
        <time>2020-09-22T10:24:56Z</time>
      </trkpt>
      <trkpt lat="46.458" lon="4.85741">
        <ele>219</ele>
        <time>2020-09-22T10:24:59Z</time>
      </trkpt>
      <trkpt lat="46.45825" lon="4.85749">
        <ele>218</ele>
        <time>2020-09-22T10:25:05Z</time>
      </trkpt>
      <trkpt lat="46.45889" lon="4.85753">
        <ele>217</ele>
        <time>2020-09-22T10:25:20Z</time>
      </trkpt>
      <trkpt lat="46.45936" lon="4.85782">
        <ele>215</ele>
        <time>2020-09-22T10:25:32Z</time>
      </trkpt>
      <trkpt lat="46.4595" lon="4.85787">
        <ele>214</ele>
        <time>2020-09-22T10:25:35Z</time>
      </trkpt>
      <trkpt lat="46.46007" lon="4.85799">
        <ele>212</ele>
        <time>2020-09-22T10:25:49Z</time>
      </trkpt>
      <trkpt lat="46.46093" lon="4.85828">
        <ele>211</ele>
        <time>2020-09-22T10:26:09Z</time>
      </trkpt>
      <trkpt lat="46.46224" lon="4.85812">
        <ele>211</ele>
        <time>2020-09-22T10:26:40Z</time>
      </trkpt>
      <trkpt lat="46.463" lon="4.85807">
        <ele>210</ele>
        <time>2020-09-22T10:26:58Z</time>
      </trkpt>
      <trkpt lat="46.46318" lon="4.85808">
        <ele>210</ele>
        <time>2020-09-22T10:27:02Z</time>
      </trkpt>
      <trkpt lat="46.46607" lon="4.85944">
        <ele>212</ele>
        <time>2020-09-22T10:28:13Z</time>
      </trkpt>
      <trkpt lat="46.46672" lon="4.85988">
        <ele>213</ele>
        <time>2020-09-22T10:28:30Z</time>
      </trkpt>
      <trkpt lat="46.46699" lon="4.86013">
        <ele>214</ele>
        <time>2020-09-22T10:28:37Z</time>
      </trkpt>
      <trkpt lat="46.4675" lon="4.86044">
        <ele>215</ele>
        <time>2020-09-22T10:28:50Z</time>
      </trkpt>
      <trkpt lat="46.46784" lon="4.8606">
        <ele>214</ele>
        <time>2020-09-22T10:28:58Z</time>
      </trkpt>
      <trkpt lat="46.46793" lon="4.86054">
        <ele>214</ele>
        <time>2020-09-22T10:29:01Z</time>
      </trkpt>
      <trkpt lat="46.46807" lon="4.8599">
        <ele>213</ele>
        <time>2020-09-22T10:29:11Z</time>
      </trkpt>
      <trkpt lat="46.46821" lon="4.85946">
        <ele>212</ele>
        <time>2020-09-22T10:29:19Z</time>
      </trkpt>
      <trkpt lat="46.46841" lon="4.85902">
        <ele>212</ele>
        <time>2020-09-22T10:29:28Z</time>
      </trkpt>
      <trkpt lat="46.46907" lon="4.8578">
        <ele>214</ele>
        <time>2020-09-22T10:29:53Z</time>
      </trkpt>
      <trkpt lat="46.46923" lon="4.85757">
        <ele>214</ele>
        <time>2020-09-22T10:29:58Z</time>
      </trkpt>
      <trkpt lat="46.46935" lon="4.85747">
        <ele>214</ele>
        <time>2020-09-22T10:30:01Z</time>
      </trkpt>
      <trkpt lat="46.46939" lon="4.85747">
        <ele>214</ele>
        <time>2020-09-22T10:30:02Z</time>
      </trkpt>
      <trkpt lat="46.4695" lon="4.85752">
        <ele>214</ele>
        <time>2020-09-22T10:30:05Z</time>
      </trkpt>
      <trkpt lat="46.4696" lon="4.8577">
        <ele>213</ele>
        <time>2020-09-22T10:30:09Z</time>
      </trkpt>
      <trkpt lat="46.46982" lon="4.8579">
        <ele>213</ele>
        <time>2020-09-22T10:30:15Z</time>
      </trkpt>
      <trkpt lat="46.47063" lon="4.85841">
        <ele>212</ele>
        <time>2020-09-22T10:30:35Z</time>
      </trkpt>
      <trkpt lat="46.47132" lon="4.85861">
        <ele>209</ele>
        <time>2020-09-22T10:30:52Z</time>
      </trkpt>
      <trkpt lat="46.47164" lon="4.85867">
        <ele>208</ele>
        <time>2020-09-22T10:30:59Z</time>
      </trkpt>
      <trkpt lat="46.47213" lon="4.85881">
        <ele>206</ele>
        <time>2020-09-22T10:31:11Z</time>
      </trkpt>
      <trkpt lat="46.47257" lon="4.859">
        <ele>203</ele>
        <time>2020-09-22T10:31:22Z</time>
      </trkpt>
      <trkpt lat="46.47317" lon="4.85944">
        <ele>199</ele>
        <time>2020-09-22T10:31:37Z</time>
      </trkpt>
      <trkpt lat="46.47378" lon="4.85984">
        <ele>198</ele>
        <time>2020-09-22T10:31:53Z</time>
      </trkpt>
      <trkpt lat="46.47447" lon="4.85998">
        <ele>197</ele>
        <time>2020-09-22T10:32:09Z</time>
      </trkpt>
      <trkpt lat="46.47485" lon="4.86013">
        <ele>195</ele>
        <time>2020-09-22T10:32:18Z</time>
      </trkpt>
      <trkpt lat="46.47516" lon="4.86015">
        <ele>195</ele>
        <time>2020-09-22T10:32:26Z</time>
      </trkpt>
      <trkpt lat="46.47527" lon="4.86011">
        <ele>195</ele>
        <time>2020-09-22T10:32:28Z</time>
      </trkpt>
      <trkpt lat="46.47557" lon="4.85988">
        <ele>194</ele>
        <time>2020-09-22T10:32:36Z</time>
      </trkpt>
      <trkpt lat="46.4758" lon="4.85976">
        <ele>194</ele>
        <time>2020-09-22T10:32:42Z</time>
      </trkpt>
      <trkpt lat="46.47598" lon="4.85973">
        <ele>194</ele>
        <time>2020-09-22T10:32:46Z</time>
      </trkpt>
      <trkpt lat="46.4767" lon="4.85981">
        <ele>195</ele>
        <time>2020-09-22T10:33:03Z</time>
      </trkpt>
      <trkpt lat="46.47665" lon="4.86039">
        <ele>196</ele>
        <time>2020-09-22T10:33:12Z</time>
      </trkpt>
      <trkpt lat="46.47658" lon="4.86078">
        <ele>196</ele>
        <time>2020-09-22T10:33:19Z</time>
      </trkpt>
      <trkpt lat="46.47652" lon="4.86097">
        <ele>196</ele>
        <time>2020-09-22T10:33:22Z</time>
      </trkpt>
      <trkpt lat="46.47652" lon="4.86111">
        <ele>197</ele>
        <time>2020-09-22T10:33:24Z</time>
      </trkpt>
      <trkpt lat="46.47666" lon="4.86118">
        <ele>197</ele>
        <time>2020-09-22T10:33:28Z</time>
      </trkpt>
      <trkpt lat="46.47723" lon="4.86133">
        <ele>203</ele>
        <time>2020-09-22T10:33:41Z</time>
      </trkpt>
      <trkpt lat="46.47749" lon="4.86144">
        <ele>206</ele>
        <time>2020-09-22T10:33:48Z</time>
      </trkpt>
      <trkpt lat="46.47771" lon="4.86157">
        <ele>207</ele>
        <time>2020-09-22T10:33:53Z</time>
      </trkpt>
      <trkpt lat="46.47746" lon="4.86252">
        <ele>207</ele>
        <time>2020-09-22T10:34:10Z</time>
      </trkpt>
      <trkpt lat="46.47688" lon="4.86536">
        <ele>203</ele>
        <time>2020-09-22T10:34:57Z</time>
      </trkpt>
      <trkpt lat="46.47679" lon="4.86599">
        <ele>205</ele>
        <time>2020-09-22T10:35:08Z</time>
      </trkpt>
      <trkpt lat="46.47707" lon="4.86611">
        <ele>207</ele>
        <time>2020-09-22T10:35:14Z</time>
      </trkpt>
      <trkpt lat="46.47955" lon="4.86756">
        <ele>209</ele>
        <time>2020-09-22T10:36:17Z</time>
      </trkpt>
      <trkpt lat="46.48027" lon="4.86815">
        <ele>205</ele>
        <time>2020-09-22T10:36:36Z</time>
      </trkpt>
      <trkpt lat="46.48038" lon="4.86819">
        <ele>205</ele>
        <time>2020-09-22T10:36:39Z</time>
      </trkpt>
      <trkpt lat="46.48052" lon="4.86819">
        <ele>204</ele>
        <time>2020-09-22T10:36:42Z</time>
      </trkpt>
      <trkpt lat="46.48097" lon="4.86813">
        <ele>202</ele>
        <time>2020-09-22T10:36:53Z</time>
      </trkpt>
      <trkpt lat="46.48106" lon="4.86815">
        <ele>202</ele>
        <time>2020-09-22T10:36:55Z</time>
      </trkpt>
      <trkpt lat="46.48124" lon="4.86814">
        <ele>201</ele>
        <time>2020-09-22T10:36:59Z</time>
      </trkpt>
      <trkpt lat="46.48136" lon="4.86807">
        <ele>201</ele>
        <time>2020-09-22T10:37:02Z</time>
      </trkpt>
      <trkpt lat="46.48145" lon="4.86808">
        <ele>200</ele>
        <time>2020-09-22T10:37:04Z</time>
      </trkpt>
      <trkpt lat="46.48174" lon="4.86815">
        <ele>200</ele>
        <time>2020-09-22T10:37:11Z</time>
      </trkpt>
      <trkpt lat="46.482" lon="4.86829">
        <ele>201</ele>
        <time>2020-09-22T10:37:17Z</time>
      </trkpt>
      <trkpt lat="46.48229" lon="4.8684">
        <ele>202</ele>
        <time>2020-09-22T10:37:24Z</time>
      </trkpt>
      <trkpt lat="46.48284" lon="4.86854">
        <ele>204</ele>
        <time>2020-09-22T10:37:38Z</time>
      </trkpt>
      <trkpt lat="46.48351" lon="4.86883">
        <ele>205</ele>
        <time>2020-09-22T10:37:54Z</time>
      </trkpt>
      <trkpt lat="46.48351" lon="4.86899">
        <ele>205</ele>
        <time>2020-09-22T10:37:56Z</time>
      </trkpt>
      <trkpt lat="46.48321" lon="4.86992">
        <ele>204</ele>
        <time>2020-09-22T10:38:13Z</time>
      </trkpt>
      <trkpt lat="46.48301" lon="4.8708">
        <ele>206</ele>
        <time>2020-09-22T10:38:28Z</time>
      </trkpt>
      <trkpt lat="46.48269" lon="4.87322">
        <ele>203</ele>
        <time>2020-09-22T10:39:07Z</time>
      </trkpt>
      <trkpt lat="46.48239" lon="4.87511">
        <ele>199</ele>
        <time>2020-09-22T10:39:39Z</time>
      </trkpt>
      <trkpt lat="46.48231" lon="4.87596">
        <ele>198</ele>
        <time>2020-09-22T10:39:52Z</time>
      </trkpt>
      <trkpt lat="46.48218" lon="4.87669">
        <ele>196</ele>
        <time>2020-09-22T10:40:05Z</time>
      </trkpt>
      <trkpt lat="46.48213" lon="4.87719">
        <ele>195</ele>
        <time>2020-09-22T10:40:13Z</time>
      </trkpt>
      <trkpt lat="46.48224" lon="4.87816">
        <ele>193</ele>
        <time>2020-09-22T10:40:29Z</time>
      </trkpt>
      <trkpt lat="46.48225" lon="4.87868">
        <ele>192</ele>
        <time>2020-09-22T10:40:37Z</time>
      </trkpt>
      <trkpt lat="46.48234" lon="4.87883">
        <ele>192</ele>
        <time>2020-09-22T10:40:40Z</time>
      </trkpt>
      <trkpt lat="46.48252" lon="4.8789">
        <ele>191</ele>
        <time>2020-09-22T10:40:44Z</time>
      </trkpt>
      <trkpt lat="46.48445" lon="4.87939">
        <ele>196</ele>
        <time>2020-09-22T10:41:30Z</time>
      </trkpt>
      <trkpt lat="46.48554" lon="4.87959">
        <ele>198</ele>
        <time>2020-09-22T10:41:56Z</time>
      </trkpt>
      <trkpt lat="46.48624" lon="4.87965">
        <ele>199</ele>
        <time>2020-09-22T10:42:12Z</time>
      </trkpt>
      <trkpt lat="46.48658" lon="4.87975">
        <ele>199</ele>
        <time>2020-09-22T10:42:20Z</time>
      </trkpt>
      <trkpt lat="46.48679" lon="4.8799">
        <ele>199</ele>
        <time>2020-09-22T10:42:26Z</time>
      </trkpt>
      <trkpt lat="46.48694" lon="4.88006">
        <ele>200</ele>
        <time>2020-09-22T10:42:30Z</time>
      </trkpt>
      <trkpt lat="46.48729" lon="4.88076">
        <ele>201</ele>
        <time>2020-09-22T10:42:44Z</time>
      </trkpt>
      <trkpt lat="46.4876" lon="4.88113">
        <ele>202</ele>
        <time>2020-09-22T10:42:53Z</time>
      </trkpt>
      <trkpt lat="46.48782" lon="4.88131">
        <ele>202</ele>
        <time>2020-09-22T10:42:59Z</time>
      </trkpt>
      <trkpt lat="46.4883" lon="4.88159">
        <ele>203</ele>
        <time>2020-09-22T10:43:11Z</time>
      </trkpt>
      <trkpt lat="46.48872" lon="4.88177">
        <ele>203</ele>
        <time>2020-09-22T10:43:22Z</time>
      </trkpt>
      <trkpt lat="46.4896" lon="4.88195">
        <ele>202</ele>
        <time>2020-09-22T10:43:42Z</time>
      </trkpt>
      <trkpt lat="46.48989" lon="4.88209">
        <ele>201</ele>
        <time>2020-09-22T10:43:49Z</time>
      </trkpt>
      <trkpt lat="46.49007" lon="4.88215">
        <ele>201</ele>
        <time>2020-09-22T10:43:54Z</time>
      </trkpt>
      <trkpt lat="46.49063" lon="4.88223">
        <ele>200</ele>
        <time>2020-09-22T10:44:07Z</time>
      </trkpt>
      <trkpt lat="46.49167" lon="4.88231">
        <ele>198</ele>
        <time>2020-09-22T10:44:31Z</time>
      </trkpt>
      <trkpt lat="46.49181" lon="4.8823">
        <ele>198</ele>
        <time>2020-09-22T10:44:35Z</time>
      </trkpt>
      <trkpt lat="46.49201" lon="4.88216">
        <ele>198</ele>
        <time>2020-09-22T10:44:40Z</time>
      </trkpt>
      <trkpt lat="46.49228" lon="4.88176">
        <ele>200</ele>
        <time>2020-09-22T10:44:49Z</time>
      </trkpt>
      <trkpt lat="46.49241" lon="4.88161">
        <ele>201</ele>
        <time>2020-09-22T10:44:53Z</time>
      </trkpt>
      <trkpt lat="46.49276" lon="4.88134">
        <ele>203</ele>
        <time>2020-09-22T10:45:02Z</time>
      </trkpt>
      <trkpt lat="46.49315" lon="4.88111">
        <ele>205</ele>
        <time>2020-09-22T10:45:12Z</time>
      </trkpt>
      <trkpt lat="46.49337" lon="4.88103">
        <ele>205</ele>
        <time>2020-09-22T10:45:17Z</time>
      </trkpt>
      <trkpt lat="46.49357" lon="4.88101">
        <ele>205</ele>
        <time>2020-09-22T10:45:22Z</time>
      </trkpt>
      <trkpt lat="46.4937" lon="4.88103">
        <ele>205</ele>
        <time>2020-09-22T10:45:25Z</time>
      </trkpt>
      <trkpt lat="46.49383" lon="4.8811">
        <ele>204</ele>
        <time>2020-09-22T10:45:28Z</time>
      </trkpt>
      <trkpt lat="46.49445" lon="4.8816">
        <ele>200</ele>
        <time>2020-09-22T10:45:45Z</time>
      </trkpt>
      <trkpt lat="46.4947" lon="4.8817">
        <ele>199</ele>
        <time>2020-09-22T10:45:51Z</time>
      </trkpt>
      <trkpt lat="46.49571" lon="4.88189">
        <ele>203</ele>
        <time>2020-09-22T10:46:14Z</time>
      </trkpt>
      <trkpt lat="46.49667" lon="4.88195">
        <ele>208</ele>
        <time>2020-09-22T10:46:37Z</time>
      </trkpt>
      <trkpt lat="46.49699" lon="4.88204">
        <ele>209</ele>
        <time>2020-09-22T10:46:44Z</time>
      </trkpt>
      <trkpt lat="46.49774" lon="4.88245">
        <ele>210</ele>
        <time>2020-09-22T10:47:03Z</time>
      </trkpt>
      <trkpt lat="46.49816" lon="4.88275">
        <ele>209</ele>
        <time>2020-09-22T10:47:14Z</time>
      </trkpt>
      <trkpt lat="46.49868" lon="4.88296">
        <ele>211</ele>
        <time>2020-09-22T10:47:27Z</time>
      </trkpt>
      <trkpt lat="46.49884" lon="4.88296">
        <ele>211</ele>
        <time>2020-09-22T10:47:30Z</time>
      </trkpt>
      <trkpt lat="46.49892" lon="4.88292">
        <ele>212</ele>
        <time>2020-09-22T10:47:32Z</time>
      </trkpt>
      <trkpt lat="46.49933" lon="4.8824">
        <ele>213</ele>
        <time>2020-09-22T10:47:45Z</time>
      </trkpt>
      <trkpt lat="46.49937" lon="4.88238">
        <ele>213</ele>
        <time>2020-09-22T10:47:46Z</time>
      </trkpt>
      <trkpt lat="46.49949" lon="4.88237">
        <ele>214</ele>
        <time>2020-09-22T10:47:49Z</time>
      </trkpt>
      <trkpt lat="46.49978" lon="4.88267">
        <ele>214</ele>
        <time>2020-09-22T10:47:57Z</time>
      </trkpt>
      <trkpt lat="46.50033" lon="4.88346">
        <ele>217</ele>
        <time>2020-09-22T10:48:15Z</time>
      </trkpt>
      <trkpt lat="46.50075" lon="4.88389">
        <ele>220</ele>
        <time>2020-09-22T10:48:27Z</time>
      </trkpt>
      <trkpt lat="46.50107" lon="4.88427">
        <ele>221</ele>
        <time>2020-09-22T10:48:37Z</time>
      </trkpt>
      <trkpt lat="46.50112" lon="4.8844">
        <ele>221</ele>
        <time>2020-09-22T10:48:39Z</time>
      </trkpt>
      <trkpt lat="46.50106" lon="4.88465">
        <ele>221</ele>
        <time>2020-09-22T10:48:44Z</time>
      </trkpt>
      <trkpt lat="46.50104" lon="4.88485">
        <ele>220</ele>
        <time>2020-09-22T10:48:47Z</time>
      </trkpt>
      <trkpt lat="46.50146" lon="4.8854">
        <ele>220</ele>
        <time>2020-09-22T10:49:00Z</time>
      </trkpt>
      <trkpt lat="46.50157" lon="4.88551">
        <ele>220</ele>
        <time>2020-09-22T10:49:03Z</time>
      </trkpt>
      <trkpt lat="46.50163" lon="4.88562">
        <ele>220</ele>
        <time>2020-09-22T10:49:05Z</time>
      </trkpt>
      <trkpt lat="46.50169" lon="4.88569">
        <ele>220</ele>
        <time>2020-09-22T10:49:07Z</time>
      </trkpt>
      <trkpt lat="46.50178" lon="4.88572">
        <ele>221</ele>
        <time>2020-09-22T10:49:09Z</time>
      </trkpt>
      <trkpt lat="46.50229" lon="4.88576">
        <ele>222</ele>
        <time>2020-09-22T10:49:21Z</time>
      </trkpt>
      <trkpt lat="46.50238" lon="4.8858">
        <ele>222</ele>
        <time>2020-09-22T10:49:23Z</time>
      </trkpt>
      <trkpt lat="46.50238" lon="4.88617">
        <ele>221</ele>
        <time>2020-09-22T10:49:29Z</time>
      </trkpt>
      <trkpt lat="46.50221" lon="4.88705">
        <ele>218</ele>
        <time>2020-09-22T10:49:44Z</time>
      </trkpt>
      <trkpt lat="46.50221" lon="4.8873">
        <ele>218</ele>
        <time>2020-09-22T10:49:48Z</time>
      </trkpt>
      <trkpt lat="46.50213" lon="4.88736">
        <ele>217</ele>
        <time>2020-09-22T10:49:50Z</time>
      </trkpt>
      <trkpt lat="46.50219" lon="4.88745">
        <ele>217</ele>
        <time>2020-09-22T10:49:52Z</time>
      </trkpt>
      <trkpt lat="46.50223" lon="4.88761">
        <ele>217</ele>
        <time>2020-09-22T10:49:55Z</time>
      </trkpt>
      <trkpt lat="46.50248" lon="4.88827">
        <ele>219</ele>
        <time>2020-09-22T10:50:07Z</time>
      </trkpt>
      <trkpt lat="46.50311" lon="4.88897">
        <ele>220</ele>
        <time>2020-09-22T10:50:26Z</time>
      </trkpt>
      <trkpt lat="46.50345" lon="4.88922">
        <ele>220</ele>
        <time>2020-09-22T10:50:35Z</time>
      </trkpt>
      <trkpt lat="46.50359" lon="4.88926">
        <ele>221</ele>
        <time>2020-09-22T10:50:38Z</time>
      </trkpt>
      <trkpt lat="46.50382" lon="4.88926">
        <ele>222</ele>
        <time>2020-09-22T10:50:43Z</time>
      </trkpt>
      <trkpt lat="46.50389" lon="4.88922">
        <ele>223</ele>
        <time>2020-09-22T10:50:45Z</time>
      </trkpt>
      <trkpt lat="46.50399" lon="4.88927">
        <ele>223</ele>
        <time>2020-09-22T10:50:47Z</time>
      </trkpt>
      <trkpt lat="46.50452" lon="4.88943">
        <ele>224</ele>
        <time>2020-09-22T10:51:00Z</time>
      </trkpt>
      <trkpt lat="46.5047" lon="4.88955">
        <ele>225</ele>
        <time>2020-09-22T10:51:05Z</time>
      </trkpt>
      <trkpt lat="46.5052" lon="4.89011">
        <ele>226</ele>
        <time>2020-09-22T10:51:19Z</time>
      </trkpt>
      <trkpt lat="46.50573" lon="4.89062">
        <ele>227</ele>
        <time>2020-09-22T10:51:34Z</time>
      </trkpt>
      <trkpt lat="46.50575" lon="4.8907">
        <ele>227</ele>
        <time>2020-09-22T10:51:36Z</time>
      </trkpt>
      <trkpt lat="46.50574" lon="4.89082">
        <ele>227</ele>
        <time>2020-09-22T10:51:38Z</time>
      </trkpt>
      <trkpt lat="46.50566" lon="4.89104">
        <ele>226</ele>
        <time>2020-09-22T10:51:42Z</time>
      </trkpt>
      <trkpt lat="46.50532" lon="4.89171">
        <ele>224</ele>
        <time>2020-09-22T10:51:55Z</time>
      </trkpt>
      <trkpt lat="46.50488" lon="4.893">
        <ele>220</ele>
        <time>2020-09-22T10:52:18Z</time>
      </trkpt>
      <trkpt lat="46.50466" lon="4.89376">
        <ele>218</ele>
        <time>2020-09-22T10:52:31Z</time>
      </trkpt>
      <trkpt lat="46.50465" lon="4.89393">
        <ele>218</ele>
        <time>2020-09-22T10:52:34Z</time>
      </trkpt>
      <trkpt lat="46.50568" lon="4.89477">
        <ele>218</ele>
        <time>2020-09-22T10:53:02Z</time>
      </trkpt>
      <trkpt lat="46.50573" lon="4.89486">
        <ele>218</ele>
        <time>2020-09-22T10:53:04Z</time>
      </trkpt>
      <trkpt lat="46.50565" lon="4.89531">
        <ele>216</ele>
        <time>2020-09-22T10:53:11Z</time>
      </trkpt>
      <trkpt lat="46.50549" lon="4.89683">
        <ele>213</ele>
        <time>2020-09-22T10:53:36Z</time>
      </trkpt>
      <trkpt lat="46.50547" lon="4.8976">
        <ele>211</ele>
        <time>2020-09-22T10:53:48Z</time>
      </trkpt>
      <trkpt lat="46.50552" lon="4.89862">
        <ele>210</ele>
        <time>2020-09-22T10:54:05Z</time>
      </trkpt>
      <trkpt lat="46.50584" lon="4.9006">
        <ele>206</ele>
        <time>2020-09-22T10:54:37Z</time>
      </trkpt>
      <trkpt lat="46.50512" lon="4.90014">
        <ele>207</ele>
        <time>2020-09-22T10:54:56Z</time>
      </trkpt>
      <trkpt lat="46.50371" lon="4.89916">
        <ele>206</ele>
        <time>2020-09-22T10:55:32Z</time>
      </trkpt>
      <trkpt lat="46.50357" lon="4.89913">
        <ele>206</ele>
        <time>2020-09-22T10:55:35Z</time>
      </trkpt>
      <trkpt lat="46.50357" lon="4.89928">
        <ele>206</ele>
        <time>2020-09-22T10:55:38Z</time>
      </trkpt>
      <trkpt lat="46.50327" lon="4.90025">
        <ele>203</ele>
        <time>2020-09-22T10:55:55Z</time>
      </trkpt>
      <trkpt lat="46.50284" lon="4.90199">
        <ele>197</ele>
        <time>2020-09-22T10:56:25Z</time>
      </trkpt>
      <trkpt lat="46.50275" lon="4.90223">
        <ele>196</ele>
        <time>2020-09-22T10:56:29Z</time>
      </trkpt>
      <trkpt lat="46.50264" lon="4.9024">
        <ele>196</ele>
        <time>2020-09-22T10:56:33Z</time>
      </trkpt>
      <trkpt lat="46.50245" lon="4.9026">
        <ele>195</ele>
        <time>2020-09-22T10:56:38Z</time>
      </trkpt>
      <trkpt lat="46.50236" lon="4.90266">
        <ele>195</ele>
        <time>2020-09-22T10:56:41Z</time>
      </trkpt>
      <trkpt lat="46.50195" lon="4.90275">
        <ele>196</ele>
        <time>2020-09-22T10:56:50Z</time>
      </trkpt>
      <trkpt lat="46.50175" lon="4.90295">
        <ele>196</ele>
        <time>2020-09-22T10:56:56Z</time>
      </trkpt>
      <trkpt lat="46.50148" lon="4.90351">
        <ele>195</ele>
        <time>2020-09-22T10:57:07Z</time>
      </trkpt>
      <trkpt lat="46.50147" lon="4.90366">
        <ele>195</ele>
        <time>2020-09-22T10:57:09Z</time>
      </trkpt>
      <trkpt lat="46.50149" lon="4.90375">
        <ele>195</ele>
        <time>2020-09-22T10:57:11Z</time>
      </trkpt>
      <trkpt lat="46.50174" lon="4.90408">
        <ele>195</ele>
        <time>2020-09-22T10:57:19Z</time>
      </trkpt>
      <trkpt lat="46.50176" lon="4.90422">
        <ele>195</ele>
        <time>2020-09-22T10:57:21Z</time>
      </trkpt>
      <trkpt lat="46.50166" lon="4.90467">
        <ele>194</ele>
        <time>2020-09-22T10:57:29Z</time>
      </trkpt>
      <trkpt lat="46.50162" lon="4.90505">
        <ele>193</ele>
        <time>2020-09-22T10:57:35Z</time>
      </trkpt>
      <trkpt lat="46.50157" lon="4.90593">
        <ele>193</ele>
        <time>2020-09-22T10:57:49Z</time>
      </trkpt>
      <trkpt lat="46.50145" lon="4.90698">
        <ele>191</ele>
        <time>2020-09-22T10:58:06Z</time>
      </trkpt>
      <trkpt lat="46.50143" lon="4.90788">
        <ele>191</ele>
        <time>2020-09-22T10:58:21Z</time>
      </trkpt>
      <trkpt lat="46.49939" lon="4.90679">
        <ele>187</ele>
        <time>2020-09-22T10:59:11Z</time>
      </trkpt>
      <trkpt lat="46.49818" lon="4.90619">
        <ele>189</ele>
        <time>2020-09-22T10:59:41Z</time>
      </trkpt>
      <trkpt lat="46.49807" lon="4.90725">
        <ele>188</ele>
        <time>2020-09-22T10:59:58Z</time>
      </trkpt>
      <trkpt lat="46.498" lon="4.9077">
        <ele>187</ele>
        <time>2020-09-22T11:00:06Z</time>
      </trkpt>
      <trkpt lat="46.49788" lon="4.90816">
        <ele>185</ele>
        <time>2020-09-22T11:00:14Z</time>
      </trkpt>
      <trkpt lat="46.49767" lon="4.90863">
        <ele>183</ele>
        <time>2020-09-22T11:00:23Z</time>
      </trkpt>
      <trkpt lat="46.49746" lon="4.90918">
        <ele>180</ele>
        <time>2020-09-22T11:00:33Z</time>
      </trkpt>
      <trkpt lat="46.4973" lon="4.90983">
        <ele>176</ele>
        <time>2020-09-22T11:00:44Z</time>
      </trkpt>
      <trkpt lat="46.49696" lon="4.91052">
        <ele>174</ele>
        <time>2020-09-22T11:00:58Z</time>
      </trkpt>
      <trkpt lat="46.49648" lon="4.91163">
        <ele>172</ele>
        <time>2020-09-22T11:01:19Z</time>
      </trkpt>
      <trkpt lat="46.49468" lon="4.91608">
        <ele>171</ele>
        <time>2020-09-22T11:02:42Z</time>
      </trkpt>
      <trkpt lat="46.49467" lon="4.91625">
        <ele>171</ele>
        <time>2020-09-22T11:02:44Z</time>
      </trkpt>
      <trkpt lat="46.49461" lon="4.91628">
        <ele>171</ele>
        <time>2020-09-22T11:02:46Z</time>
      </trkpt>
      <trkpt lat="46.49456" lon="4.91638">
        <ele>171</ele>
        <time>2020-09-22T11:02:48Z</time>
      </trkpt>
      <trkpt lat="46.49411" lon="4.91749">
        <ele>172</ele>
        <time>2020-09-22T11:03:09Z</time>
      </trkpt>
      <trkpt lat="46.49375" lon="4.91725">
        <ele>172</ele>
        <time>2020-09-22T11:03:18Z</time>
      </trkpt>
      <trkpt lat="46.49314" lon="4.91672">
        <ele>170</ele>
        <time>2020-09-22T11:03:34Z</time>
      </trkpt>
      <trkpt lat="46.49253" lon="4.91595">
        <ele>169</ele>
        <time>2020-09-22T11:03:53Z</time>
      </trkpt>
      <trkpt lat="46.49193" lon="4.91528">
        <ele>171</ele>
        <time>2020-09-22T11:04:11Z</time>
      </trkpt>
      <trkpt lat="46.49152" lon="4.91486">
        <ele>171</ele>
        <time>2020-09-22T11:04:23Z</time>
      </trkpt>
      <trkpt lat="46.49073" lon="4.91422">
        <ele>172</ele>
        <time>2020-09-22T11:04:44Z</time>
      </trkpt>
      <trkpt lat="46.49035" lon="4.9138">
        <ele>172</ele>
        <time>2020-09-22T11:04:55Z</time>
      </trkpt>
      <trkpt lat="46.48979" lon="4.91337">
        <ele>172</ele>
        <time>2020-09-22T11:05:10Z</time>
      </trkpt>
      <trkpt lat="46.48956" lon="4.91323">
        <ele>172</ele>
        <time>2020-09-22T11:05:16Z</time>
      </trkpt>
      <trkpt lat="46.48862" lon="4.91277">
        <ele>173</ele>
        <time>2020-09-22T11:05:39Z</time>
      </trkpt>
      <trkpt lat="46.48821" lon="4.9126">
        <ele>173</ele>
        <time>2020-09-22T11:05:49Z</time>
      </trkpt>
      <trkpt lat="46.48781" lon="4.91247">
        <ele>173</ele>
        <time>2020-09-22T11:05:58Z</time>
      </trkpt>
      <trkpt lat="46.48763" lon="4.91244">
        <ele>173</ele>
        <time>2020-09-22T11:06:03Z</time>
      </trkpt>
      <trkpt lat="46.48762" lon="4.91253">
        <ele>173</ele>
        <time>2020-09-22T11:06:04Z</time>
      </trkpt>
      <trkpt lat="46.48622" lon="4.91224">
        <ele>173</ele>
        <time>2020-09-22T11:06:37Z</time>
      </trkpt>
      <trkpt lat="46.48591" lon="4.91224">
        <ele>173</ele>
        <time>2020-09-22T11:06:44Z</time>
      </trkpt>
      <trkpt lat="46.48461" lon="4.91255">
        <ele>172</ele>
        <time>2020-09-22T11:07:15Z</time>
      </trkpt>
      <trkpt lat="46.48439" lon="4.91258">
        <ele>172</ele>
        <time>2020-09-22T11:07:20Z</time>
      </trkpt>
      <trkpt lat="46.48309" lon="4.91253">
        <ele>174</ele>
        <time>2020-09-22T11:07:51Z</time>
      </trkpt>
      <trkpt lat="46.48297" lon="4.91254">
        <ele>173</ele>
        <time>2020-09-22T11:07:53Z</time>
      </trkpt>
      <trkpt lat="46.48269" lon="4.91262">
        <ele>173</ele>
        <time>2020-09-22T11:08:00Z</time>
      </trkpt>
      <trkpt lat="46.48237" lon="4.91263">
        <ele>173</ele>
        <time>2020-09-22T11:08:08Z</time>
      </trkpt>
      <trkpt lat="46.48207" lon="4.91262">
        <ele>173</ele>
        <time>2020-09-22T11:08:15Z</time>
      </trkpt>
      <trkpt lat="46.48197" lon="4.91259">
        <ele>173</ele>
        <time>2020-09-22T11:08:17Z</time>
      </trkpt>
      <trkpt lat="46.48144" lon="4.91254">
        <ele>173</ele>
        <time>2020-09-22T11:08:29Z</time>
      </trkpt>
      <trkpt lat="46.48101" lon="4.91254">
        <ele>174</ele>
        <time>2020-09-22T11:08:39Z</time>
      </trkpt>
      <trkpt lat="46.48078" lon="4.91258">
        <ele>174</ele>
        <time>2020-09-22T11:08:45Z</time>
      </trkpt>
      <trkpt lat="46.47976" lon="4.91267">
        <ele>173</ele>
        <time>2020-09-22T11:09:09Z</time>
      </trkpt>
      <trkpt lat="46.47819" lon="4.91287">
        <ele>171</ele>
        <time>2020-09-22T11:09:45Z</time>
      </trkpt>
      <trkpt lat="46.47803" lon="4.9129">
        <ele>171</ele>
        <time>2020-09-22T11:09:49Z</time>
      </trkpt>
      <trkpt lat="46.47777" lon="4.91299">
        <ele>170</ele>
        <time>2020-09-22T11:09:55Z</time>
      </trkpt>
      <trkpt lat="46.47744" lon="4.91318">
        <ele>170</ele>
        <time>2020-09-22T11:10:04Z</time>
      </trkpt>
      <trkpt lat="46.4768" lon="4.91332">
        <ele>173</ele>
        <time>2020-09-22T11:10:19Z</time>
      </trkpt>
      <trkpt lat="46.4764" lon="4.91335">
        <ele>173</ele>
        <time>2020-09-22T11:10:28Z</time>
      </trkpt>
      <trkpt lat="46.47619" lon="4.91343">
        <ele>172</ele>
        <time>2020-09-22T11:10:33Z</time>
      </trkpt>
      <trkpt lat="46.47579" lon="4.91366">
        <ele>171</ele>
        <time>2020-09-22T11:10:43Z</time>
      </trkpt>
      <trkpt lat="46.47564" lon="4.91372">
        <ele>170</ele>
        <time>2020-09-22T11:10:47Z</time>
      </trkpt>
      <trkpt lat="46.47427" lon="4.91403">
        <ele>170</ele>
        <time>2020-09-22T11:11:19Z</time>
      </trkpt>
      <trkpt lat="46.47384" lon="4.9141">
        <ele>172</ele>
        <time>2020-09-22T11:11:29Z</time>
      </trkpt>
      <trkpt lat="46.47282" lon="4.91417">
        <ele>172</ele>
        <time>2020-09-22T11:11:53Z</time>
      </trkpt>
      <trkpt lat="46.47122" lon="4.91409">
        <ele>174</ele>
        <time>2020-09-22T11:12:31Z</time>
      </trkpt>
      <trkpt lat="46.47067" lon="4.91409">
        <ele>174</ele>
        <time>2020-09-22T11:12:44Z</time>
      </trkpt>
      <trkpt lat="46.46991" lon="4.91413">
        <ele>168</ele>
        <time>2020-09-22T11:13:01Z</time>
      </trkpt>
      <trkpt lat="46.46973" lon="4.9141">
        <ele>169</ele>
        <time>2020-09-22T11:13:06Z</time>
      </trkpt>
      <trkpt lat="46.46962" lon="4.91414">
        <ele>169</ele>
        <time>2020-09-22T11:13:08Z</time>
      </trkpt>
      <trkpt lat="46.46889" lon="4.91413">
        <ele>171</ele>
        <time>2020-09-22T11:13:25Z</time>
      </trkpt>
      <trkpt lat="46.46854" lon="4.9142">
        <ele>172</ele>
        <time>2020-09-22T11:13:33Z</time>
      </trkpt>
      <trkpt lat="46.46792" lon="4.91415">
        <ele>172</ele>
        <time>2020-09-22T11:13:48Z</time>
      </trkpt>
      <trkpt lat="46.46777" lon="4.91411">
        <ele>172</ele>
        <time>2020-09-22T11:13:52Z</time>
      </trkpt>
      <trkpt lat="46.4675" lon="4.91395">
        <ele>172</ele>
        <time>2020-09-22T11:13:58Z</time>
      </trkpt>
      <trkpt lat="46.4673" lon="4.91378">
        <ele>171</ele>
        <time>2020-09-22T11:14:04Z</time>
      </trkpt>
      <trkpt lat="46.4672" lon="4.91373">
        <ele>171</ele>
        <time>2020-09-22T11:14:06Z</time>
      </trkpt>
      <trkpt lat="46.46703" lon="4.91368">
        <ele>171</ele>
        <time>2020-09-22T11:14:10Z</time>
      </trkpt>
      <trkpt lat="46.46664" lon="4.91374">
        <ele>171</ele>
        <time>2020-09-22T11:14:19Z</time>
      </trkpt>
      <trkpt lat="46.46655" lon="4.91373">
        <ele>171</ele>
        <time>2020-09-22T11:14:22Z</time>
      </trkpt>
      <trkpt lat="46.46638" lon="4.91368">
        <ele>171</ele>
        <time>2020-09-22T11:14:26Z</time>
      </trkpt>
      <trkpt lat="46.46602" lon="4.91348">
        <ele>171</ele>
        <time>2020-09-22T11:14:35Z</time>
      </trkpt>
      <trkpt lat="46.4657" lon="4.91335">
        <ele>171</ele>
        <time>2020-09-22T11:14:42Z</time>
      </trkpt>
      <trkpt lat="46.46528" lon="4.91327">
        <ele>170</ele>
        <time>2020-09-22T11:14:52Z</time>
      </trkpt>
      <trkpt lat="46.46452" lon="4.91302">
        <ele>170</ele>
        <time>2020-09-22T11:15:10Z</time>
      </trkpt>
      <trkpt lat="46.46445" lon="4.91297">
        <ele>170</ele>
        <time>2020-09-22T11:15:12Z</time>
      </trkpt>
      <trkpt lat="46.46432" lon="4.91303">
        <ele>171</ele>
        <time>2020-09-22T11:15:15Z</time>
      </trkpt>
      <trkpt lat="46.46375" lon="4.91299">
        <ele>171</ele>
        <time>2020-09-22T11:15:29Z</time>
      </trkpt>
      <trkpt lat="46.46325" lon="4.91288">
        <ele>171</ele>
        <time>2020-09-22T11:15:41Z</time>
      </trkpt>
      <trkpt lat="46.46293" lon="4.91278">
        <ele>171</ele>
        <time>2020-09-22T11:15:48Z</time>
      </trkpt>
      <trkpt lat="46.46217" lon="4.91244">
        <ele>173</ele>
        <time>2020-09-22T11:16:07Z</time>
      </trkpt>
      <trkpt lat="46.46165" lon="4.91216">
        <ele>172</ele>
        <time>2020-09-22T11:16:20Z</time>
      </trkpt>
      <trkpt lat="46.46115" lon="4.91186">
        <ele>172</ele>
        <time>2020-09-22T11:16:32Z</time>
      </trkpt>
      <trkpt lat="46.46039" lon="4.91133">
        <ele>171</ele>
        <time>2020-09-22T11:16:52Z</time>
      </trkpt>
      <trkpt lat="46.46009" lon="4.91108">
        <ele>170</ele>
        <time>2020-09-22T11:17:00Z</time>
      </trkpt>
      <trkpt lat="46.45954" lon="4.91051">
        <ele>169</ele>
        <time>2020-09-22T11:17:16Z</time>
      </trkpt>
      <trkpt lat="46.459" lon="4.9099">
        <ele>170</ele>
        <time>2020-09-22T11:17:32Z</time>
      </trkpt>
      <trkpt lat="46.45857" lon="4.90913">
        <ele>170</ele>
        <time>2020-09-22T11:17:48Z</time>
      </trkpt>
      <trkpt lat="46.45767" lon="4.90808">
        <ele>171</ele>
        <time>2020-09-22T11:18:15Z</time>
      </trkpt>
      <trkpt lat="46.45745" lon="4.9078">
        <ele>170</ele>
        <time>2020-09-22T11:18:22Z</time>
      </trkpt>
      <trkpt lat="46.45705" lon="4.9072">
        <ele>170</ele>
        <time>2020-09-22T11:18:35Z</time>
      </trkpt>
      <trkpt lat="46.45681" lon="4.90678">
        <ele>171</ele>
        <time>2020-09-22T11:18:44Z</time>
      </trkpt>
      <trkpt lat="46.45577" lon="4.90477">
        <ele>171</ele>
        <time>2020-09-22T11:19:24Z</time>
      </trkpt>
      <trkpt lat="46.45555" lon="4.90439">
        <ele>170</ele>
        <time>2020-09-22T11:19:32Z</time>
      </trkpt>
      <trkpt lat="46.45532" lon="4.9039">
        <ele>170</ele>
        <time>2020-09-22T11:19:42Z</time>
      </trkpt>
      <trkpt lat="46.4549" lon="4.90316">
        <ele>170</ele>
        <time>2020-09-22T11:19:57Z</time>
      </trkpt>
      <trkpt lat="46.45456" lon="4.90265">
        <ele>171</ele>
        <time>2020-09-22T11:20:09Z</time>
      </trkpt>
      <trkpt lat="46.45418" lon="4.90217">
        <ele>172</ele>
        <time>2020-09-22T11:20:20Z</time>
      </trkpt>
      <trkpt lat="46.45384" lon="4.90169">
        <ele>171</ele>
        <time>2020-09-22T11:20:32Z</time>
      </trkpt>
      <trkpt lat="46.45364" lon="4.90133">
        <ele>171</ele>
        <time>2020-09-22T11:20:39Z</time>
      </trkpt>
      <trkpt lat="46.45309" lon="4.90062">
        <ele>171</ele>
        <time>2020-09-22T11:20:56Z</time>
      </trkpt>
      <trkpt lat="46.45284" lon="4.90023">
        <ele>171</ele>
        <time>2020-09-22T11:21:05Z</time>
      </trkpt>
      <trkpt lat="46.45263" lon="4.89998">
        <ele>172</ele>
        <time>2020-09-22T11:21:11Z</time>
      </trkpt>
      <trkpt lat="46.45232" lon="4.89954">
        <ele>171</ele>
        <time>2020-09-22T11:21:21Z</time>
      </trkpt>
      <trkpt lat="46.45173" lon="4.89849">
        <ele>171</ele>
        <time>2020-09-22T11:21:43Z</time>
      </trkpt>
      <trkpt lat="46.45144" lon="4.89805">
        <ele>172</ele>
        <time>2020-09-22T11:21:53Z</time>
      </trkpt>
      <trkpt lat="46.45117" lon="4.89772">
        <ele>172</ele>
        <time>2020-09-22T11:22:01Z</time>
      </trkpt>
      <trkpt lat="46.45104" lon="4.8975">
        <ele>173</ele>
        <time>2020-09-22T11:22:06Z</time>
      </trkpt>
      <trkpt lat="46.44994" lon="4.89624">
        <ele>173</ele>
        <time>2020-09-22T11:22:38Z</time>
      </trkpt>
      <trkpt lat="46.44924" lon="4.89559">
        <ele>174</ele>
        <time>2020-09-22T11:22:58Z</time>
      </trkpt>
      <trkpt lat="46.44879" lon="4.89524">
        <ele>172</ele>
        <time>2020-09-22T11:23:10Z</time>
      </trkpt>
      <trkpt lat="46.44853" lon="4.895">
        <ele>172</ele>
        <time>2020-09-22T11:23:17Z</time>
      </trkpt>
      <trkpt lat="46.44838" lon="4.89489">
        <ele>172</ele>
        <time>2020-09-22T11:23:21Z</time>
      </trkpt>
      <trkpt lat="46.4483" lon="4.89495">
        <ele>172</ele>
        <time>2020-09-22T11:23:23Z</time>
      </trkpt>
      <trkpt lat="46.44818" lon="4.89497">
        <ele>172</ele>
        <time>2020-09-22T11:23:26Z</time>
      </trkpt>
      <trkpt lat="46.44797" lon="4.89497">
        <ele>171</ele>
        <time>2020-09-22T11:23:31Z</time>
      </trkpt>
      <trkpt lat="46.44791" lon="4.89496">
        <ele>171</ele>
        <time>2020-09-22T11:23:32Z</time>
      </trkpt>
      <trkpt lat="46.44786" lon="4.89492">
        <ele>171</ele>
        <time>2020-09-22T11:23:33Z</time>
      </trkpt>
      <trkpt lat="46.44769" lon="4.89472">
        <ele>171</ele>
        <time>2020-09-22T11:23:39Z</time>
      </trkpt>
      <trkpt lat="46.44755" lon="4.89442">
        <ele>173</ele>
        <time>2020-09-22T11:23:44Z</time>
      </trkpt>
      <trkpt lat="46.44747" lon="4.89411">
        <ele>174</ele>
        <time>2020-09-22T11:23:50Z</time>
      </trkpt>
      <trkpt lat="46.44646" lon="4.89319">
        <ele>173</ele>
        <time>2020-09-22T11:24:18Z</time>
      </trkpt>
      <trkpt lat="46.44625" lon="4.89302">
        <ele>174</ele>
        <time>2020-09-22T11:24:23Z</time>
      </trkpt>
      <trkpt lat="46.44596" lon="4.89285">
        <ele>174</ele>
        <time>2020-09-22T11:24:30Z</time>
      </trkpt>
      <trkpt lat="46.44599" lon="4.89287">
        <ele>174</ele>
        <time>2020-09-22T11:24:31Z</time>
      </trkpt>
      <trkpt lat="46.44725" lon="4.88851">
        <ele>170</ele>
        <time>2020-09-22T11:25:47Z</time>
      </trkpt>
      <trkpt lat="46.44746" lon="4.8877">
        <ele>169</ele>
        <time>2020-09-22T11:26:01Z</time>
      </trkpt>
      <trkpt lat="46.44767" lon="4.88669">
        <ele>167</ele>
        <time>2020-09-22T11:26:18Z</time>
      </trkpt>
    </trkseg>
  </trk>
</gpx>